Time;durP1;ratioP1;P1;durP2;ratioP2;P2;SDS_P1;SDS_P2;PMS_P1;PMS_P2;Temp;Humidity;BMP_temperature;BMP_pressure;BME280_temperature;BME280_humidity;BME280_pressure;Samples;Min_cycle;Max_cycle;Signal;HPM_P1;HPM_P2
2023/02/18 00:02:09;;;;;;;0.70;0.50;;;14.70;99.90;;;;;;5052020;28;20212;-59
2023/02/18 00:04:35;;;;;;;0.83;0.60;;;14.60;99.90;;;;;;5051568;28;20205;-58
2023/02/18 00:07:02;;;;;;;1.10;0.70;;;14.60;99.90;;;;;;5052172;28;20233;-58
2023/02/18 00:09:29;;;;;;;0.85;0.50;;;14.60;99.90;;;;;;5051897;28;20263;-58
2023/02/18 00:11:57;;;;;;;1.58;0.50;;;14.60;99.90;;;;;;5052515;28;20213;-58
2023/02/18 00:14:23;;;;;;;0.73;0.60;;;14.70;99.90;;;;;;5051628;28;20241;-58
2023/02/18 00:16:50;;;;;;;1.57;0.60;;;14.70;99.90;;;;;;5051582;28;20229;-57
2023/02/18 00:19:19;;;;;;;0.47;0.30;;;14.70;99.90;;;;;;5051447;28;20213;-58
2023/02/18 00:21:46;;;;;;;0.63;0.43;;;14.60;99.90;;;;;;5052221;28;20214;-58
2023/02/18 00:24:15;;;;;;;1.00;0.70;;;14.60;99.90;;;;;;5051804;28;20216;-58
2023/02/18 00:26:42;;;;;;;0.63;0.40;;;14.60;99.90;;;;;;5051756;28;20602;-58
2023/02/18 00:29:10;;;;;;;0.40;0.40;;;14.70;99.90;;;;;;5051690;28;20697;-57
2023/02/18 00:31:39;;;;;;;1.53;0.80;;;14.70;99.90;;;;;;5055215;28;20214;-57
2023/02/18 00:34:06;;;;;;;1.17;0.70;;;14.70;99.90;;;;;;5055249;28;20223;-58
2023/02/18 00:36:33;;;;;;;2.25;0.70;;;14.70;99.90;;;;;;5055336;28;20291;-58
2023/02/18 00:39:02;;;;;;;1.23;0.70;;;14.70;99.90;;;;;;5055435;28;20202;-58
2023/02/18 00:41:30;;;;;;;1.00;0.67;;;14.60;99.90;;;;;;5055379;28;20205;-57
2023/02/18 00:43:57;;;;;;;0.93;0.70;;;14.60;99.90;;;;;;5054984;28;20228;-57
2023/02/18 00:46:26;;;;;;;1.10;0.70;;;14.60;99.90;;;;;;5055039;28;20237;-58
2023/02/18 00:48:53;;;;;;;1.33;0.83;;;14.60;99.90;;;;;;5055339;28;20232;-58
2023/02/18 00:51:20;;;;;;;1.40;1.13;;;14.60;99.90;;;;;;5055038;28;20218;-58
2023/02/18 00:53:46;;;;;;;1.43;0.63;;;14.60;99.90;;;;;;5054998;28;20205;-58
2023/02/18 00:56:13;;;;;;;3.27;0.80;;;14.60;99.90;;;;;;5055119;28;20225;-57
2023/02/18 00:58:40;;;;;;;1.57;1.07;;;14.70;99.90;;;;;;5055180;28;20201;-58
2023/02/18 01:01:08;;;;;;;0.90;0.70;;;14.60;99.90;;;;;;5055448;28;20584;-58
2023/02/18 01:03:37;;;;;;;1.90;0.87;;;14.70;99.90;;;;;;5055154;28;20205;-57
2023/02/18 01:06:04;;;;;;;1.67;0.93;;;14.70;99.90;;;;;;5054693;28;20213;-58
2023/02/18 01:08:31;;;;;;;0.73;0.60;;;14.70;99.90;;;;;;5055172;28;20206;-58
2023/02/18 01:10:59;;;;;;;1.27;0.50;;;14.80;99.90;;;;;;5055279;28;20202;-58
2023/02/18 01:13:26;;;;;;;1.33;0.80;;;14.70;99.90;;;;;;5055010;28;20283;-58
2023/02/18 01:15:54;;;;;;;1.50;1.10;;;14.70;99.90;;;;;;5054645;28;20222;-58
2023/02/18 01:18:21;;;;;;;2.50;0.70;;;14.70;99.90;;;;;;5055120;28;20225;-58
2023/02/18 01:20:49;;;;;;;0.83;0.67;;;14.80;99.90;;;;;;5055137;28;20588;-58
2023/02/18 01:23:17;;;;;;;0.80;0.60;;;14.70;99.90;;;;;;5054627;28;20234;-58
2023/02/18 01:25:44;;;;;;;0.77;0.70;;;14.80;99.90;;;;;;5054406;28;20206;-58
2023/02/18 01:28:13;;;;;;;2.43;0.60;;;14.80;99.90;;;;;;5054868;28;20235;-58
2023/02/18 01:30:41;;;;;;;0.67;0.43;;;14.80;99.90;;;;;;5054615;28;20577;-57
2023/02/18 01:33:08;;;;;;;0.57;0.50;;;14.80;99.90;;;;;;5054526;28;20241;-59
2023/02/18 01:35:37;;;;;;;0.53;0.50;;;14.80;99.90;;;;;;5054527;28;20226;-59
2023/02/18 01:38:05;;;;;;;0.73;0.60;;;14.80;99.90;;;;;;5054433;28;20225;-57
2023/02/18 01:40:32;;;;;;;0.50;0.50;;;14.80;99.90;;;;;;5054451;28;20202;-57
2023/02/18 01:42:59;;;;;;;2.67;0.53;;;14.70;99.90;;;;;;5054325;28;20213;-58
2023/02/18 01:45:52;;;;;;;2.10;0.70;;;14.70;99.90;;;;;;5054216;28;20198;-58
2023/02/18 01:48:23;;;;;;;0.70;0.50;;;14.70;99.90;;;;;;5054179;28;20240;-58
2023/02/18 01:50:53;;;;;;;1.30;0.97;;;14.70;99.90;;;;;;5054130;28;20210;-57
2023/02/18 01:53:27;;;;;;;1.10;0.80;;;14.70;99.90;;;;;;5054538;28;20216;-58
2023/02/18 01:55:54;;;;;;;0.80;0.60;;;14.70;99.90;;;;;;5054256;28;20323;-58
2023/02/18 01:58:21;;;;;;;0.60;0.53;;;14.60;99.90;;;;;;5054423;28;20225;-58
2023/02/18 02:00:48;;;;;;;1.03;0.53;;;14.60;99.90;;;;;;5054192;28;20209;-57
2023/02/18 02:03:15;;;;;;;1.10;0.80;;;14.60;99.90;;;;;;5053937;28;20210;-58
2023/02/18 02:05:41;;;;;;;1.87;0.80;;;14.60;99.90;;;;;;5053759;28;20202;-57
2023/02/18 02:08:08;;;;;;;1.03;0.73;;;14.60;99.90;;;;;;5054058;28;20229;-58
2023/02/18 02:10:49;;;;;;;0.73;0.50;;;14.70;99.90;;;;;;5054180;28;20213;-58
2023/02/18 02:13:26;;;;;;;2.30;0.70;;;14.70;99.90;;;;;;5054058;28;20205;-57
2023/02/18 02:16:01;;;;;;;2.00;1.70;;;14.70;99.90;;;;;;5053754;28;20237;-58
2023/02/18 02:18:48;;;;;;;1.07;0.80;;;14.60;99.90;;;;;;5053899;28;20692;-58
2023/02/18 02:21:58;;;;;;;1.17;1.00;;;14.50;99.90;;;;;;5053821;28;20336;-58
2023/02/18 02:25:00;;;;;;;1.20;0.93;;;14.50;99.90;;;;;;5053185;28;20677;-57
2023/02/18 02:27:43;;;;;;;0.70;0.53;;;14.50;99.90;;;;;;5053499;28;20236;-58
2023/02/18 02:30:33;;;;;;;0.77;0.47;;;14.50;99.90;;;;;;5053537;28;20201;-57
2023/02/18 02:33:38;;;;;;;1.20;0.70;;;14.60;99.90;;;;;;5053416;28;20206;-58
2023/02/18 02:36:13;;;;;;;0.90;0.60;;;14.60;99.90;;;;;;5053002;28;20236;-59
2023/02/18 02:38:49;;;;;;;2.97;1.07;;;14.60;99.90;;;;;;5053261;28;20209;-59
2023/02/18 02:41:27;;;;;;;0.60;0.60;;;14.60;99.90;;;;;;5053090;28;20580;-56
2023/02/18 02:44:06;;;;;;;0.83;0.80;;;14.60;99.90;;;;;;5052853;28;20209;-56
2023/02/18 02:46:39;;;;;;;1.10;1.00;;;14.50;99.90;;;;;;5052986;28;20229;-57
2023/02/18 02:49:12;;;;;;;3.63;0.93;;;14.60;99.90;;;;;;5052562;28;20217;-56
2023/02/18 02:51:46;;;;;;;1.43;0.90;;;14.60;99.90;;;;;;5052739;28;20212;-57
2023/02/18 02:54:15;;;;;;;0.80;0.80;;;14.60;99.90;;;;;;5052061;28;20216;-56
2023/02/18 02:56:42;;;;;;;0.80;0.80;;;14.60;99.90;;;;;;5052282;28;20241;-57
2023/02/18 02:59:13;;;;;;;1.60;0.80;;;14.50;99.90;;;;;;5052523;28;20210;-57
2023/02/18 03:01:50;;;;;;;1.17;0.80;;;14.50;99.90;;;;;;5052284;28;20209;-57
2023/02/18 03:04:30;;;;;;;2.27;1.03;;;14.50;99.90;;;;;;5052364;28;20209;-57
2023/02/18 03:07:18;;;;;;;1.00;0.90;;;14.50;99.90;;;;;;5052401;28;20226;-56
2023/02/18 03:10:02;;;;;;;1.13;0.80;;;14.50;99.90;;;;;;5052329;28;20205;-57
2023/02/18 03:12:37;;;;;;;1.63;0.90;;;14.50;99.90;;;;;;5052520;28;20259;-57
2023/02/18 03:15:08;;;;;;;1.13;1.03;;;14.50;99.90;;;;;;5052176;28;20681;-57
2023/02/18 03:17:40;;;;;;;0.80;0.80;;;14.40;99.90;;;;;;5052305;28;20240;-57
2023/02/18 03:20:15;;;;;;;0.83;0.80;;;14.40;99.90;;;;;;5052267;28;20569;-57
2023/02/18 03:22:47;;;;;;;1.00;0.90;;;14.40;99.90;;;;;;5052442;28;20209;-57
2023/02/18 03:25:15;;;;;;;1.07;0.80;;;14.40;99.90;;;;;;5052230;28;20216;-57
2023/02/18 03:27:46;;;;;;;2.33;0.90;;;14.40;99.90;;;;;;5052256;28;20720;-57
2023/02/18 03:30:16;;;;;;;0.70;0.70;;;14.30;99.90;;;;;;5052955;28;20208;-57
2023/02/18 03:32:43;;;;;;;1.70;0.90;;;14.20;99.90;;;;;;5052401;28;20692;-57
2023/02/18 03:35:13;;;;;;;1.23;0.83;;;14.20;99.90;;;;;;5052294;28;20228;-57
2023/02/18 03:37:47;;;;;;;2.40;1.10;;;14.30;99.90;;;;;;5052538;28;20221;-57
2023/02/18 03:40:17;;;;;;;2.17;1.20;;;14.30;99.90;;;;;;5053048;28;20243;-57
2023/02/18 03:42:44;;;;;;;1.80;0.97;;;14.30;99.90;;;;;;5052603;28;20691;-57
2023/02/18 03:45:10;;;;;;;0.80;0.80;;;14.30;99.90;;;;;;5052344;28;20210;-56
2023/02/18 03:47:37;;;;;;;0.90;0.70;;;14.20;99.90;;;;;;5051999;28;20244;-56
2023/02/18 03:50:05;;;;;;;2.07;0.83;;;14.20;99.90;;;;;;5052406;28;20228;-56
2023/02/18 03:52:31;;;;;;;1.00;0.90;;;14.20;99.90;;;;;;5052021;28;20611;-56
2023/02/18 03:54:59;;;;;;;1.03;0.80;;;14.20;99.90;;;;;;5051795;28;20209;-56
2023/02/18 03:57:26;;;;;;;1.90;0.73;;;14.20;99.90;;;;;;5051808;28;20655;-57
2023/02/18 03:59:53;;;;;;;1.00;0.60;;;14.20;99.90;;;;;;5052138;28;20205;-57
2023/02/18 04:02:19;;;;;;;2.73;0.70;;;14.20;99.90;;;;;;5051805;28;20209;-57
2023/02/18 04:04:46;;;;;;;1.30;0.80;;;14.10;99.90;;;;;;5052402;28;20209;-57
2023/02/18 04:07:13;;;;;;;1.80;1.03;;;14.10;99.90;;;;;;5055548;28;20229;-57
2023/02/18 04:09:40;;;;;;;1.33;0.90;;;14.10;99.90;;;;;;5055666;28;20693;-57
2023/02/18 04:12:08;;;;;;;0.83;0.70;;;14.00;99.90;;;;;;5055584;28;20263;-57
2023/02/18 04:14:35;;;;;;;1.13;1.00;;;13.90;99.90;;;;;;5055932;28;20213;-57
2023/02/18 04:17:02;;;;;;;1.23;0.80;;;13.90;99.90;;;;;;5055642;28;20229;-57
2023/02/18 04:19:28;;;;;;;1.40;0.83;;;14.00;99.90;;;;;;5055646;28;20206;-57
2023/02/18 04:21:55;;;;;;;1.63;1.00;;;14.00;99.90;;;;;;5055783;28;20212;-58
2023/02/18 04:24:22;;;;;;;0.80;0.80;;;13.90;99.90;;;;;;5055236;28;20205;-57
2023/02/18 04:26:48;;;;;;;1.80;1.20;;;13.90;99.90;;;;;;5055331;28;20603;-57
2023/02/18 04:29:16;;;;;;;1.63;1.30;;;13.80;99.90;;;;;;5055343;28;20209;-57
2023/02/18 04:31:43;;;;;;;10.33;7.23;;;13.80;99.90;;;;;;5055506;28;20583;-58
2023/02/18 04:34:10;;;;;;;9.47;7.10;;;13.80;99.90;;;;;;5055194;28;20232;-57
2023/02/18 04:36:37;;;;;;;3.80;2.67;;;13.80;99.90;;;;;;5055204;28;20233;-58
2023/02/18 04:39:03;;;;;;;0.73;0.73;;;13.80;99.90;;;;;;5055318;28;20216;-57
2023/02/18 04:41:30;;;;;;;1.43;0.90;;;13.80;99.90;;;;;;5055121;28;20263;-57
2023/02/18 04:43:58;;;;;;;1.70;0.90;;;13.90;99.90;;;;;;5055452;28;20210;-57
2023/02/18 04:46:26;;;;;;;0.90;0.90;;;13.90;99.90;;;;;;5054937;28;20252;-57
2023/02/18 04:48:53;;;;;;;1.20;0.83;;;13.80;99.90;;;;;;5055418;28;20217;-55
2023/02/18 04:51:20;;;;;;;0.87;0.60;;;13.80;99.90;;;;;;5055158;28;20251;-56
2023/02/18 04:53:46;;;;;;;0.97;0.87;;;13.70;99.90;;;;;;5055101;28;20212;-57
2023/02/18 04:56:13;;;;;;;1.10;0.80;;;13.70;99.90;;;;;;5054433;28;20287;-57
2023/02/18 04:58:40;;;;;;;1.97;0.80;;;13.70;99.90;;;;;;5054900;28;20205;-57
2023/02/18 05:01:07;;;;;;;1.30;0.80;;;13.70;99.90;;;;;;5054887;28;20256;-57
2023/02/18 05:03:35;;;;;;;0.80;0.80;;;13.70;99.90;;;;;;5054852;28;20206;-58
2023/02/18 05:06:02;;;;;;;1.93;1.70;;;13.70;99.90;;;;;;5054219;28;20666;-58
2023/02/18 05:08:28;;;;;;;1.20;1.10;;;13.60;99.90;;;;;;5054574;28;20209;-57
2023/02/18 05:10:55;;;;;;;1.90;1.73;;;13.70;99.90;;;;;;5054492;28;20209;-56
2023/02/18 05:13:22;;;;;;;4.37;2.07;;;13.80;99.90;;;;;;5054723;28;20236;-57
2023/02/18 05:15:49;;;;;;;2.33;1.80;;;13.80;99.90;;;;;;5053885;28;20205;-57
2023/02/18 05:18:16;;;;;;;2.27;1.07;;;13.80;99.90;;;;;;5054494;28;20244;-61
2023/02/18 05:20:44;;;;;;;2.93;1.97;;;13.70;99.90;;;;;;5054290;28;20205;-57
2023/02/18 05:23:11;;;;;;;3.43;2.17;;;13.70;99.90;;;;;;5054300;28;20205;-57
2023/02/18 05:25:37;;;;;;;2.07;1.50;;;13.70;99.90;;;;;;5054116;28;20202;-56
2023/02/18 05:28:04;;;;;;;2.10;1.30;;;13.60;99.90;;;;;;5054230;28;20706;-56
2023/02/18 05:30:31;;;;;;;1.30;1.00;;;13.60;99.90;;;;;;5054349;28;20568;-56
2023/02/18 05:32:58;;;;;;;1.77;1.00;;;13.60;99.90;;;;;;5054646;28;20214;-56
2023/02/18 05:35:24;;;;;;;0.87;0.73;;;13.60;99.90;;;;;;5054444;28;20212;-56
2023/02/18 05:37:52;;;;;;;1.40;0.70;;;13.60;99.90;;;;;;5054343;28;20241;-56
2023/02/18 05:40:19;;;;;;;1.60;0.83;;;13.50;99.90;;;;;;5054399;28;20632;-56
2023/02/18 05:42:46;;;;;;;1.63;1.30;;;13.40;99.90;;;;;;5054208;28;20213;-54
2023/02/18 05:45:13;;;;;;;0.90;0.87;;;13.40;99.90;;;;;;5053944;28;20213;-55
2023/02/18 05:47:39;;;;;;;1.00;0.90;;;13.30;99.90;;;;;;5054028;28;20233;-55
2023/02/18 05:50:08;;;;;;;1.03;0.80;;;13.30;99.90;;;;;;5054055;28;20221;-56
2023/02/18 05:52:34;;;;;;;1.30;0.80;;;13.30;99.90;;;;;;5053767;28;20205;-56
2023/02/18 05:55:02;;;;;;;2.23;1.70;;;13.30;99.90;;;;;;5053673;28;20205;-56
2023/02/18 05:57:29;;;;;;;3.30;1.97;;;13.30;99.90;;;;;;5053560;28;20232;-56
2023/02/18 05:59:56;;;;;;;1.63;1.40;;;13.30;99.90;;;;;;5053802;28;20216;-56
2023/02/18 06:02:22;;;;;;;2.00;1.17;;;13.20;99.90;;;;;;5053965;28;20274;-56
2023/02/18 06:04:49;;;;;;;1.97;1.10;;;13.20;99.90;;;;;;5053379;28;20586;-57
2023/02/18 06:07:17;;;;;;;1.80;0.93;;;13.20;99.90;;;;;;5053413;28;20729;-56
2023/02/18 06:09:43;;;;;;;1.03;0.93;;;13.10;99.90;;;;;;5053807;28;20209;-57
2023/02/18 06:12:12;;;;;;;9.03;5.70;;;13.10;99.90;;;;;;5053434;28;20205;-57
2023/02/18 06:14:40;;;;;;;1.97;1.30;;;13.10;99.90;;;;;;5053094;28;20213;-57
2023/02/18 06:17:07;;;;;;;2.10;1.40;;;13.00;99.90;;;;;;5053201;28;20233;-57
2023/02/18 06:19:34;;;;;;;1.60;1.20;;;13.00;99.90;;;;;;5053155;28;20210;-57
2023/02/18 06:22:01;;;;;;;0.70;0.70;;;13.00;99.90;;;;;;5053901;28;20213;-57
2023/02/18 06:24:27;;;;;;;1.33;1.20;;;13.10;99.90;;;;;;5053286;28;20228;-57
2023/02/18 06:26:54;;;;;;;1.63;1.10;;;13.20;99.90;;;;;;5052823;28;20221;-56
2023/02/18 06:29:22;;;;;;;1.33;0.80;;;13.20;99.90;;;;;;5052781;28;20209;-56
2023/02/18 06:31:49;;;;;;;2.20;1.13;;;13.30;99.90;;;;;;5053079;28;20209;-56
2023/02/18 06:34:16;;;;;;;1.60;0.80;;;13.30;99.90;;;;;;5052930;28;20222;-56
2023/02/18 06:36:42;;;;;;;2.37;1.67;;;13.30;99.90;;;;;;5052533;28;20716;-55
2023/02/18 06:39:09;;;;;;;1.90;1.50;;;13.20;99.90;;;;;;5053033;28;20213;-56
2023/02/18 06:41:36;;;;;;;1.63;0.93;;;13.30;99.90;;;;;;5053061;28;20292;-57
2023/02/18 06:44:03;;;;;;;1.33;1.10;;;13.20;99.90;;;;;;5052545;28;20292;-57
2023/02/18 06:46:31;;;;;;;1.33;1.03;;;13.20;99.90;;;;;;5052468;28;20240;-56
2023/02/18 06:48:58;;;;;;;1.10;1.00;;;13.10;99.90;;;;;;5053644;28;20708;-60
2023/02/18 06:51:24;;;;;;;1.77;1.00;;;13.10;99.90;;;;;;5053016;28;20300;-56
2023/02/18 06:53:51;;;;;;;0.80;0.80;;;13.20;99.90;;;;;;5052545;28;20210;-56
2023/02/18 06:56:18;;;;;;;1.73;1.20;;;13.20;99.90;;;;;;5052409;28;20221;-56
2023/02/18 06:58:45;;;;;;;2.70;0.90;;;13.30;99.90;;;;;;5052747;28;20666;-57
2023/02/18 07:01:11;;;;;;;1.73;0.77;;;13.40;99.90;;;;;;5052629;28;20210;-57
2023/02/18 07:03:39;;;;;;;2.00;0.97;;;13.30;99.90;;;;;;5053106;28;20637;-57
2023/02/18 07:06:07;;;;;;;0.93;0.87;;;13.30;99.90;;;;;;5052248;28;20209;-58
2023/02/18 07:08:35;;;;;;;2.47;1.00;;;13.40;99.90;;;;;;5052368;28;20206;-58
2023/02/18 07:11:02;;;;;;;1.37;1.17;;;13.40;99.90;;;;;;5052398;28;20670;-58
2023/02/18 07:13:28;;;;;;;1.10;0.80;;;13.50;99.90;;;;;;5052365;28;20255;-58
2023/02/18 07:15:55;;;;;;;1.63;1.00;;;13.50;99.90;;;;;;5051878;28;20604;-58
2023/02/18 07:18:22;;;;;;;1.93;1.50;;;13.60;99.90;;;;;;5052066;28;20303;-58
2023/02/18 07:20:50;;;;;;;1.13;0.80;;;13.60;99.90;;;;;;5052231;28;20295;-59
2023/02/18 07:23:17;;;;;;;3.00;1.20;;;13.70;99.90;;;;;;5051867;28;20607;-58
2023/02/18 07:25:43;;;;;;;0.80;0.80;;;13.70;99.90;;;;;;5051930;28;20212;-58
2023/02/18 07:28:10;;;;;;;3.70;1.23;;;13.70;99.90;;;;;;5051987;28;20225;-58
2023/02/18 07:30:37;;;;;;;2.90;1.33;;;13.90;99.90;;;;;;5051984;28;20232;-58
2023/02/18 07:33:04;;;;;;;1.60;1.10;;;13.90;99.90;;;;;;5052297;28;20212;-58
2023/02/18 07:35:30;;;;;;;1.07;0.97;;;13.90;99.90;;;;;;5052009;28;20209;-57
2023/02/18 07:37:58;;;;;;;1.80;1.50;;;13.90;99.90;;;;;;5051953;28;20233;-58
2023/02/18 07:40:25;;;;;;;1.50;1.10;;;13.90;99.90;;;;;;5058365;28;20201;-57
2023/02/18 07:42:52;;;;;;;2.17;1.17;;;13.70;99.90;;;;;;5058639;28;20250;-57
2023/02/18 07:45:19;;;;;;;2.10;1.43;;;13.80;99.90;;;;;;5058286;28;20209;-58
2023/02/18 07:47:45;;;;;;;2.57;1.60;;;13.90;99.90;;;;;;5058681;28;20242;-58
2023/02/18 07:50:12;;;;;;;1.97;1.40;;;14.00;99.90;;;;;;5059133;28;20213;-58
2023/02/18 07:52:39;;;;;;;1.27;1.03;;;14.10;99.90;;;;;;5058449;28;20205;-58
2023/02/18 07:55:08;;;;;;;1.50;1.40;;;14.20;99.90;;;;;;5058326;28;20331;-58
2023/02/18 07:57:56;;;;;;;2.07;1.40;;;14.40;99.90;;;;;;5058446;28;20225;-58
2023/02/18 08:00:22;;;;;;;2.73;1.43;;;14.40;99.90;;;;;;5058299;28;20211;-58
2023/02/18 08:02:49;;;;;;;2.53;2.17;;;14.30;99.90;;;;;;5058525;28;20214;-58
2023/02/18 08:05:16;;;;;;;2.07;1.30;;;14.40;99.90;;;;;;5058102;28;20608;-58
2023/02/18 08:07:43;;;;;;;1.33;1.23;;;14.50;99.90;;;;;;5058237;28;20225;-57
2023/02/18 08:10:11;;;;;;;2.77;1.47;;;14.60;99.90;;;;;;5058204;28;20681;-60
2023/02/18 08:12:38;;;;;;;3.87;1.00;;;14.70;99.90;;;;;;5058354;28;20209;-58
2023/02/18 08:15:05;;;;;;;1.63;1.27;;;14.70;99.90;;;;;;5058196;28;20611;-58
2023/02/18 08:17:32;;;;;;;1.97;1.60;;;14.80;99.90;;;;;;5058469;28;20618;-57
2023/02/18 08:19:58;;;;;;;1.37;1.10;;;14.80;99.90;;;;;;5058307;28;20283;-57
2023/02/18 08:22:25;;;;;;;2.83;1.00;;;14.80;99.90;;;;;;5058406;28;20209;-57
2023/02/18 08:24:54;;;;;;;1.90;1.30;;;14.80;99.90;;;;;;5058286;28;20209;-57
2023/02/18 08:27:23;;;;;;;1.33;1.20;;;14.90;99.90;;;;;;5058065;28;20247;-60
2023/02/18 08:29:50;;;;;;;4.70;1.43;;;15.00;99.90;;;;;;5058246;28;20335;-58
2023/02/18 08:32:17;;;;;;;1.00;0.90;;;15.00;99.90;;;;;;5058343;28;20232;-57
2023/02/18 08:34:44;;;;;;;3.70;1.20;;;15.10;99.90;;;;;;5057932;28;20591;-58
2023/02/18 08:37:10;;;;;;;1.33;1.07;;;15.20;99.90;;;;;;5058406;28;20236;-58
2023/02/18 08:39:38;;;;;;;3.35;1.27;;;15.40;99.90;;;;;;5058286;28;20209;-57
2023/02/18 08:42:05;;;;;;;2.40;1.20;;;15.50;99.90;;;;;;5058362;28;20206;-58
2023/02/18 08:44:33;;;;;;;3.38;1.65;;;15.70;99.90;;;;;;5058224;28;20205;-58
2023/02/18 08:47:00;;;;;;;1.70;1.23;;;15.90;99.90;;;;;;5058317;28;20717;-58
2023/02/18 08:49:27;;;;;;;3.28;1.20;;;16.10;99.90;;;;;;5057849;28;20213;-59
2023/02/18 08:51:54;;;;;;;1.58;1.23;;;16.30;99.90;;;;;;5054120;28;20210;-59
2023/02/18 08:54:20;;;;;;;3.63;1.10;;;16.40;99.90;;;;;;5055047;28;20205;-59
2023/02/18 08:56:48;;;;;;;1.77;1.17;;;16.40;99.90;;;;;;5054649;28;20237;-58
2023/02/18 08:59:14;;;;;;;2.15;1.08;;;16.60;99.90;;;;;;5054853;28;20225;-59
2023/02/18 09:01:42;;;;;;;2.72;1.17;;;16.60;99.90;;;;;;5054563;28;20574;-58
2023/02/18 09:04:09;;;;;;;1.73;0.90;;;16.70;99.90;;;;;;5054620;28;20209;-58
2023/02/18 09:06:37;;;;;;;6.22;1.20;;;16.90;99.90;;;;;;5054679;28;20316;-58
2023/02/18 09:09:04;;;;;;;1.60;0.93;;;17.00;99.90;;;;;;5055062;28;20214;-61
2023/02/18 09:11:31;;;;;;;3.85;1.20;;;17.10;99.90;;;;;;5054952;28;20206;-59
2023/02/18 09:13:57;;;;;;;2.47;1.10;;;17.20;99.90;;;;;;5054654;28;20591;-58
2023/02/18 09:16:25;;;;;;;3.35;1.10;;;17.30;99.90;;;;;;5054398;28;20229;-58
2023/02/18 09:18:54;;;;;;;1.83;1.17;;;17.30;99.90;;;;;;5054019;28;20232;-59
2023/02/18 09:21:21;;;;;;;1.52;1.08;;;17.40;99.90;;;;;;5054323;28;20618;-58
2023/02/18 09:23:48;;;;;;;4.40;1.08;;;17.40;99.90;;;;;;5054569;28;20323;-59
2023/02/18 09:26:20;;;;;;;3.70;1.40;;;17.30;99.90;;;;;;5054229;28;20209;-58
2023/02/18 09:28:48;;;;;;;1.20;0.90;;;17.30;99.90;;;;;;5054472;28;20201;-57
2023/02/18 09:31:17;;;;;;;1.08;0.98;;;17.40;99.90;;;;;;5054202;28;20586;-58
2023/02/18 09:33:46;;;;;;;2.60;0.93;;;17.50;99.90;;;;;;5054271;28;20665;-58
2023/02/18 09:36:14;;;;;;;1.35;0.90;;;17.60;99.90;;;;;;5054254;28;20205;-57
2023/02/18 09:38:41;;;;;;;2.15;1.13;;;17.70;99.90;;;;;;5053923;28;20230;-58
2023/02/18 09:41:13;;;;;;;1.40;1.05;;;17.70;99.90;;;;;;5053911;28;20220;-57
2023/02/18 09:43:43;;;;;;;1.23;0.85;;;17.80;99.90;;;;;;5053805;28;20228;-58
2023/02/18 09:46:19;;;;;;;1.60;1.10;;;18.00;99.90;;;;;;5053391;28;20569;-57
2023/02/18 09:48:47;;;;;;;1.30;0.63;;;18.30;99.90;;;;;;5053905;28;20201;-58
2023/02/18 09:51:16;;;;;;;1.23;1.00;;;18.40;99.90;;;;;;5054138;28;20296;-57
2023/02/18 09:53:44;;;;;;;1.98;0.80;;;18.60;99.90;;;;;;5054540;28;20206;-57
2023/02/18 09:56:13;;;;;;;1.23;0.80;;;18.60;99.90;;;;;;5053726;28;20210;-57
2023/02/18 09:58:41;;;;;;;2.17;0.90;;;18.60;99.90;;;;;;5054519;28;20237;-57
2023/02/18 10:01:17;;;;;;;4.15;2.08;;;18.60;99.90;;;;;;5054218;28;20304;-57
2023/02/18 10:03:44;;;;;;;4.70;1.10;;;18.80;99.90;;;;;;5053048;28;20296;-58
2023/02/18 10:06:15;;;;;;;2.63;1.02;;;19.00;99.90;;;;;;5054590;28;20226;-57
2023/02/18 10:08:46;;;;;;;2.50;1.30;;;19.00;99.90;;;;;;5054272;28;20224;-57
2023/02/18 10:11:15;;;;;;;1.52;0.95;;;18.90;99.90;;;;;;5053725;28;20689;-58
2023/02/18 10:13:43;;;;;;;4.00;0.80;;;18.80;99.90;;;;;;5054590;28;20251;-57
2023/02/18 10:16:15;;;;;;;0.80;0.65;;;18.80;99.90;;;;;;5053550;28;20228;-57
2023/02/18 10:18:47;;;;;;;1.65;1.20;;;18.70;99.90;;;;;;5054170;28;20244;-57
2023/02/18 10:21:17;;;;;;;2.45;1.00;;;18.70;99.90;;;;;;5054120;28;20206;-57
2023/02/18 10:23:53;;;;;;;1.30;0.90;;;18.70;99.90;;;;;;5054455;28;20236;-57
2023/02/18 10:26:20;;;;;;;1.45;1.10;;;18.70;99.90;;;;;;5054078;28;20252;-57
2023/02/18 10:28:48;;;;;;;2.72;0.80;;;18.70;99.90;;;;;;5053925;28;20197;-58
2023/02/18 10:31:20;;;;;;;2.05;0.70;;;18.50;99.90;;;;;;5054058;28;20209;-57
2023/02/18 10:33:53;;;;;;;1.15;0.73;;;18.40;99.90;;;;;;5053446;28;20216;-58
2023/02/18 10:36:28;;;;;;;2.65;0.80;;;18.40;99.90;;;;;;5053262;28;20295;-57
2023/02/18 10:39:31;;;;;;;1.10;1.00;;;18.40;99.90;;;;;;5053496;28;20708;-57
2023/02/18 10:42:10;;;;;;;1.40;0.80;;;18.30;99.90;;;;;;5021431;28;20205;-57
2023/02/18 10:44:48;;;;;;;1.55;1.00;;;18.30;99.90;;;;;;5053431;28;20689;-56
2023/02/18 10:47:24;;;;;;;2.50;1.00;;;18.20;99.90;;;;;;5053169;28;20237;-57
2023/02/18 10:49:58;;;;;;;2.35;0.90;;;18.20;99.90;;;;;;5052715;28;20241;-57
2023/02/18 10:52:28;;;;;;;1.25;0.80;;;18.20;99.90;;;;;;5053153;28;20548;-57
2023/02/18 10:55:03;;;;;;;2.00;1.00;;;18.20;99.90;;;;;;5049915;28;20201;-64
2023/02/18 10:57:30;;;;;;;1.95;0.90;;;18.30;99.90;;;;;;5053275;28;20317;-64
2023/02/18 10:59:59;;;;;;;0.95;0.80;;;18.30;99.90;;;;;;5053573;28;20209;-63
2023/02/18 11:02:31;;;;;;;2.25;1.00;;;18.50;99.90;;;;;;5053659;28;20686;-62
2023/02/18 11:04:59;;;;;;;1.33;0.70;;;18.60;99.90;;;;;;5052213;28;20206;-61
2023/02/18 11:07:31;;;;;;;1.55;0.80;;;18.70;99.90;;;;;;5051514;28;20225;-60
2023/02/18 11:10:01;;;;;;;1.35;0.82;;;18.70;99.90;;;;;;5051927;28;20232;-60
2023/02/18 11:12:33;;;;;;;1.13;0.73;;;18.70;99.90;;;;;;5052660;28;20254;-60
2023/02/18 11:15:15;;;;;;;1.55;0.93;;;18.60;99.90;;;;;;5050524;28;20260;-60
2023/02/18 11:17:42;;;;;;;1.27;0.90;;;18.50;99.90;;;;;;5052127;28;20225;-58
2023/02/18 11:20:24;;;;;;;0.90;0.73;;;18.50;99.90;;;;;;5052457;28;20263;-58
2023/02/18 11:22:51;;;;;;;5.88;1.55;;;18.40;99.90;;;;;;5052413;28;20626;-58
2023/02/18 11:25:25;;;;;;;0.95;0.60;;;18.30;99.90;;;;;;5051798;28;20220;-60
2023/02/18 11:27:56;;;;;;;1.17;0.85;;;18.30;99.90;;;;;;5051853;28;20335;-60
2023/02/18 11:30:26;;;;;;;1.98;0.82;;;18.30;99.90;;;;;;5051970;28;20216;-60
2023/02/18 11:32:57;;;;;;;4.00;0.98;;;18.40;99.90;;;;;;5052133;28;20236;-59
2023/02/18 11:35:28;;;;;;;1.98;0.90;;;18.40;99.90;;;;;;5051738;28;20209;-60
2023/02/18 11:37:57;;;;;;;1.20;0.75;;;18.40;99.90;;;;;;5052016;28;20241;-58
2023/02/18 11:40:29;;;;;;;1.42;0.88;;;18.40;99.90;;;;;;5051730;28;20258;-59
2023/02/18 11:43:07;;;;;;;0.75;0.75;;;18.50;99.90;;;;;;5052046;28;20263;-59
2023/02/18 11:45:35;;;;;;;2.47;0.90;;;18.50;99.90;;;;;;5051699;28;20205;-59
2023/02/18 11:48:07;;;;;;;2.85;0.77;;;18.60;99.90;;;;;;5051673;28;20237;-59
2023/02/18 11:50:35;;;;;;;1.35;0.70;;;18.50;99.90;;;;;;5051710;28;20659;-59
2023/02/18 11:53:25;;;;;;;1.00;0.80;;;18.50;99.90;;;;;;5051936;28;20233;-59
2023/02/18 11:55:57;;;;;;;1.17;1.08;;;18.40;99.90;;;;;;5051419;28;20209;-59
2023/02/18 11:58:24;;;;;;;1.13;0.88;;;18.30;99.90;;;;;;5051649;28;20252;-58
2023/02/18 12:00:55;;;;;;;1.10;0.90;;;18.20;99.90;;;;;;5051579;28;20681;-58
2023/02/18 12:03:30;;;;;;;2.03;1.60;;;18.00;99.90;;;;;;5051675;28;20677;-58
2023/02/18 12:06:01;;;;;;;1.70;1.30;;;18.00;99.90;;;;;;5052028;28;20208;-59
2023/02/18 12:08:31;;;;;;;2.00;1.25;;;18.10;99.90;;;;;;5051922;28;20208;-58
2023/02/18 12:11:04;;;;;;;1.77;1.00;;;18.10;99.90;;;;;;5052896;28;20627;-58
2023/02/18 12:13:35;;;;;;;3.95;3.15;;;18.20;99.90;;;;;;5052209;28;20221;-57
2023/02/18 12:16:11;;;;;;;1.65;1.30;;;18.20;99.90;;;;;;5051985;28;20210;-59
2023/02/18 12:18:50;;;;;;;1.52;1.00;;;18.20;99.90;;;;;;5053051;28;20217;-57
2023/02/18 12:21:35;;;;;;;1.30;1.20;;;18.20;99.90;;;;;;5053228;28;20212;-59
2023/02/18 12:24:12;;;;;;;1.77;1.20;;;18.00;99.90;;;;;;5052267;28;20212;-58
2023/02/18 12:26:53;;;;;;;0.75;0.68;;;17.90;99.90;;;;;;5054003;28;20229;-57
2023/02/18 12:29:47;;;;;;;2.08;1.77;;;17.70;99.90;;;;;;5056440;28;20892;-57
2023/02/18 12:32:36;;;;;;;1.05;0.82;;;17.50;99.90;;;;;;5056439;28;20688;-57
2023/02/18 12:35:18;;;;;;;2.90;1.15;;;17.60;99.90;;;;;;5056684;28;20212;-58
2023/02/18 12:38:14;;;;;;;1.58;1.33;;;17.70;99.90;;;;;;5057513;28;20225;-60
2023/02/18 12:40:55;;;;;;;1.60;1.10;;;17.70;99.90;;;;;;5056950;28;20564;-59
2023/02/18 12:43:37;;;;;;;3.35;1.30;;;17.70;99.90;;;;;;5056244;28;20669;-58
2023/02/18 12:46:26;;;;;;;1.88;1.40;;;17.80;99.90;;;;;;5056657;28;20213;-60
2023/02/18 12:49:17;;;;;;;1.85;1.30;;;17.80;99.90;;;;;;5057118;28;20670;-59
2023/02/18 12:51:57;;;;;;;2.45;1.45;;;17.80;99.90;;;;;;5056689;28;20216;-59
2023/02/18 12:54:47;;;;;;;1.75;1.30;;;17.60;99.90;;;;;;5056721;28;20201;-57
2023/02/18 12:57:36;;;;;;;1.30;1.20;;;17.80;99.90;;;;;;5056147;28;20226;-60
2023/02/18 13:00:35;;;;;;;1.38;1.00;;;17.80;99.90;;;;;;5056076;28;20225;-60
2023/02/18 13:03:46;;;;;;;2.47;1.63;;;17.80;99.90;;;;;;5055291;28;20205;-60
2023/02/18 13:06:34;;;;;;;1.48;1.00;;;17.70;99.90;;;;;;5007447;28;20214;-59